sensor_id;sensor_type;location;lat;lon;timestamp;P1;durP1;ratioP1;P2;durP2;ratioP2
76107;SDS011;64834;52.516;10.528;2023-06-24T00:01:20;9.00;;;5.40;;
76107;SDS011;64834;52.516;10.528;2023-06-24T00:03:47;9.35;;;5.90;;
76107;SDS011;64834;52.516;10.528;2023-06-24T00:06:13;10.38;;;5.60;;
76107;SDS011;64834;52.516;10.528;2023-06-24T00:08:43;9.10;;;5.43;;
76107;SDS011;64834;52.516;10.528;2023-06-24T00:11:10;9.10;;;5.60;;
76107;SDS011;64834;52.516;10.528;2023-06-24T00:13:35;9.05;;;5.40;;
76107;SDS011;64834;52.516;10.528;2023-06-24T00:16:01;10.10;;;6.10;;
76107;SDS011;64834;52.516;10.528;2023-06-24T00:18:26;10.57;;;5.43;;
76107;SDS011;64834;52.516;10.528;2023-06-24T00:20:54;13.50;;;6.05;;
76107;SDS011;64834;52.516;10.528;2023-06-24T00:23:21;11.50;;;5.80;;
76107;SDS011;64834;52.516;10.528;2023-06-24T00:25:49;8.55;;;5.75;;
76107;SDS011;64834;52.516;10.528;2023-06-24T00:28:18;11.02;;;6.10;;
76107;SDS011;64834;52.516;10.528;2023-06-24T00:30:43;11.32;;;5.68;;
76107;SDS011;64834;52.516;10.528;2023-06-24T00:33:09;9.48;;;5.72;;
76107;SDS011;64834;52.516;10.528;2023-06-24T00:35:38;13.15;;;5.97;;
76107;SDS011;64834;52.516;10.528;2023-06-24T00:38:04;9.43;;;5.63;;
76107;SDS011;64834;52.516;10.528;2023-06-24T00:40:29;7.65;;;4.80;;
76107;SDS011;64834;52.516;10.528;2023-06-24T00:42:54;10.85;;;5.07;;
76107;SDS011;64834;52.516;10.528;2023-06-24T00:45:21;11.65;;;5.38;;
76107;SDS011;64834;52.516;10.528;2023-06-24T00:47:47;10.63;;;5.72;;
76107;SDS011;64834;52.516;10.528;2023-06-24T00:50:13;10.77;;;6.05;;
76107;SDS011;64834;52.516;10.528;2023-06-24T00:52:39;12.48;;;5.82;;
76107;SDS011;64834;52.516;10.528;2023-06-24T00:55:07;9.05;;;5.38;;
76107;SDS011;64834;52.516;10.528;2023-06-24T00:57:34;9.18;;;5.05;;
76107;SDS011;64834;52.516;10.528;2023-06-24T01:00:02;13.80;;;6.15;;
76107;SDS011;64834;52.516;10.528;2023-06-24T01:02:33;11.02;;;6.18;;
76107;SDS011;64834;52.516;10.528;2023-06-24T01:05:02;12.77;;;6.60;;
76107;SDS011;64834;52.516;10.528;2023-06-24T01:07:28;10.10;;;6.68;;
76107;SDS011;64834;52.516;10.528;2023-06-24T01:09:56;12.13;;;5.90;;
76107;SDS011;64834;52.516;10.528;2023-06-24T01:12:22;11.35;;;6.22;;
76107;SDS011;64834;52.516;10.528;2023-06-24T01:14:47;10.05;;;6.93;;
76107;SDS011;64834;52.516;10.528;2023-06-24T01:17:15;11.98;;;6.60;;
76107;SDS011;64834;52.516;10.528;2023-06-24T01:19:50;11.27;;;6.72;;
76107;SDS011;64834;52.516;10.528;2023-06-24T01:22:32;11.20;;;7.40;;
76107;SDS011;64834;52.516;10.528;2023-06-24T01:31:19;10.65;;;6.03;;
76107;SDS011;64834;52.516;10.528;2023-06-24T01:36:38;11.43;;;5.50;;
76107;SDS011;64834;52.516;10.528;2023-06-24T01:39:07;11.18;;;5.93;;
76107;SDS011;64834;52.516;10.528;2023-06-24T01:41:34;12.32;;;6.72;;
76107;SDS011;64834;52.516;10.528;2023-06-24T01:44:04;11.95;;;6.60;;
76107;SDS011;64834;52.516;10.528;2023-06-24T01:46:32;12.48;;;6.20;;
76107;SDS011;64834;52.516;10.528;2023-06-24T01:48:59;9.73;;;6.53;;
76107;SDS011;64834;52.516;10.528;2023-06-24T01:51:28;10.32;;;7.13;;
76107;SDS011;64834;52.516;10.528;2023-06-24T01:53:58;11.52;;;7.13;;
76107;SDS011;64834;52.516;10.528;2023-06-24T01:56:27;10.82;;;6.78;;
76107;SDS011;64834;52.516;10.528;2023-06-24T01:58:54;9.40;;;6.72;;
76107;SDS011;64834;52.516;10.528;2023-06-24T02:01:21;14.85;;;6.47;;
76107;SDS011;64834;52.516;10.528;2023-06-24T02:03:48;12.95;;;5.82;;
76107;SDS011;64834;52.516;10.528;2023-06-24T02:06:15;10.77;;;5.78;;
76107;SDS011;64834;52.516;10.528;2023-06-24T02:08:42;13.23;;;5.95;;
76107;SDS011;64834;52.516;10.528;2023-06-24T02:11:08;11.15;;;5.95;;
76107;SDS011;64834;52.516;10.528;2023-06-24T02:13:35;13.98;;;5.82;;
76107;SDS011;64834;52.516;10.528;2023-06-24T02:16:01;10.10;;;6.22;;
76107;SDS011;64834;52.516;10.528;2023-06-24T02:18:31;12.93;;;6.25;;
76107;SDS011;64834;52.516;10.528;2023-06-24T02:20:56;9.95;;;6.82;;
76107;SDS011;64834;52.516;10.528;2023-06-24T02:23:22;13.20;;;7.95;;
76107;SDS011;64834;52.516;10.528;2023-06-24T02:25:49;13.73;;;8.20;;
76107;SDS011;64834;52.516;10.528;2023-06-24T02:28:15;12.90;;;8.05;;
76107;SDS011;64834;52.516;10.528;2023-06-24T02:30:42;11.82;;;7.63;;
76107;SDS011;64834;52.516;10.528;2023-06-24T02:33:08;13.98;;;7.85;;
76107;SDS011;64834;52.516;10.528;2023-06-24T02:35:36;12.35;;;7.82;;
76107;SDS011;64834;52.516;10.528;2023-06-24T02:38:02;13.10;;;7.72;;
76107;SDS011;64834;52.516;10.528;2023-06-24T02:40:28;14.23;;;7.15;;
76107;SDS011;64834;52.516;10.528;2023-06-24T02:42:54;15.60;;;7.35;;
76107;SDS011;64834;52.516;10.528;2023-06-24T02:45:19;10.27;;;6.78;;
76107;SDS011;64834;52.516;10.528;2023-06-24T02:47:45;11.77;;;7.78;;
76107;SDS011;64834;52.516;10.528;2023-06-24T02:50:12;14.07;;;6.70;;
76107;SDS011;64834;52.516;10.528;2023-06-24T02:55:05;10.48;;;6.15;;
76107;SDS011;64834;52.516;10.528;2023-06-24T02:57:32;12.95;;;6.80;;
76107;SDS011;64834;52.516;10.528;2023-06-24T03:00:00;13.70;;;6.97;;
76107;SDS011;64834;52.516;10.528;2023-06-24T03:02:33;15.35;;;7.05;;
76107;SDS011;64834;52.516;10.528;2023-06-24T03:04:58;12.63;;;7.10;;
76107;SDS011;64834;52.516;10.528;2023-06-24T03:07:27;13.35;;;7.65;;
76107;SDS011;64834;52.516;10.528;2023-06-24T03:09:53;13.75;;;7.32;;
76107;SDS011;64834;52.516;10.528;2023-06-24T03:12:18;11.82;;;6.68;;
76107;SDS011;64834;52.516;10.528;2023-06-24T03:14:44;15.50;;;7.03;;
76107;SDS011;64834;52.516;10.528;2023-06-24T03:17:09;11.95;;;6.80;;
76107;SDS011;64834;52.516;10.528;2023-06-24T03:19:36;16.13;;;7.10;;
76107;SDS011;64834;52.516;10.528;2023-06-24T03:22:01;13.90;;;7.50;;
76107;SDS011;64834;52.516;10.528;2023-06-24T03:24:27;12.40;;;7.50;;
76107;SDS011;64834;52.516;10.528;2023-06-24T03:26:52;13.20;;;7.85;;
76107;SDS011;64834;52.516;10.528;2023-06-24T03:29:21;18.15;;;8.27;;
76107;SDS011;64834;52.516;10.528;2023-06-24T03:31:49;13.82;;;8.02;;
76107;SDS011;64834;52.516;10.528;2023-06-24T03:34:15;14.25;;;8.38;;
76107;SDS011;64834;52.516;10.528;2023-06-24T03:36:41;13.80;;;8.02;;
76107;SDS011;64834;52.516;10.528;2023-06-24T03:39:07;16.17;;;8.27;;
76107;SDS011;64834;52.516;10.528;2023-06-24T03:41:32;11.85;;;7.65;;
76107;SDS011;64834;52.516;10.528;2023-06-24T03:43:57;14.18;;;8.48;;
76107;SDS011;64834;52.516;10.528;2023-06-24T03:46:23;15.93;;;7.93;;
76107;SDS011;64834;52.516;10.528;2023-06-24T03:48:49;15.52;;;7.97;;
76107;SDS011;64834;52.516;10.528;2023-06-24T03:51:17;17.35;;;8.55;;
76107;SDS011;64834;52.516;10.528;2023-06-24T03:53:42;14.15;;;8.13;;
76107;SDS011;64834;52.516;10.528;2023-06-24T03:56:08;18.98;;;9.13;;
76107;SDS011;64834;52.516;10.528;2023-06-24T03:58:33;16.48;;;8.68;;
76107;SDS011;64834;52.516;10.528;2023-06-24T04:00:59;15.35;;;9.00;;
76107;SDS011;64834;52.516;10.528;2023-06-24T04:03:25;16.67;;;9.38;;
76107;SDS011;64834;52.516;10.528;2023-06-24T04:05:52;20.05;;;10.07;;
76107;SDS011;64834;52.516;10.528;2023-06-24T04:08:18;19.00;;;9.05;;
76107;SDS011;64834;52.516;10.528;2023-06-24T04:10:43;16.67;;;10.07;;
76107;SDS011;64834;52.516;10.528;2023-06-24T04:13:09;18.42;;;8.88;;
76107;SDS011;64834;52.516;10.528;2023-06-24T04:15:34;17.80;;;9.43;;
76107;SDS011;64834;52.516;10.528;2023-06-24T04:17:59;13.05;;;8.60;;
76107;SDS011;64834;52.516;10.528;2023-06-24T04:20:25;16.70;;;8.98;;
76107;SDS011;64834;52.516;10.528;2023-06-24T04:22:50;13.90;;;9.20;;
76107;SDS011;64834;52.516;10.528;2023-06-24T04:25:15;16.55;;;8.90;;
76107;SDS011;64834;52.516;10.528;2023-06-24T04:27:41;12.73;;;9.18;;
76107;SDS011;64834;52.516;10.528;2023-06-24T04:30:06;14.18;;;8.80;;
76107;SDS011;64834;52.516;10.528;2023-06-24T04:32:32;14.73;;;8.27;;
76107;SDS011;64834;52.516;10.528;2023-06-24T04:35:00;17.13;;;9.93;;
76107;SDS011;64834;52.516;10.528;2023-06-24T04:37:29;16.80;;;10.13;;
76107;SDS011;64834;52.516;10.528;2023-06-24T04:39:54;17.15;;;10.02;;
76107;SDS011;64834;52.516;10.528;2023-06-24T04:42:20;17.80;;;10.25;;
76107;SDS011;64834;52.516;10.528;2023-06-24T04:44:45;17.73;;;10.25;;
76107;SDS011;64834;52.516;10.528;2023-06-24T04:47:10;17.77;;;9.95;;
76107;SDS011;64834;52.516;10.528;2023-06-24T04:49:38;17.33;;;10.50;;
76107;SDS011;64834;52.516;10.528;2023-06-24T04:52:04;16.85;;;9.88;;
76107;SDS011;64834;52.516;10.528;2023-06-24T04:54:31;21.92;;;10.93;;
76107;SDS011;64834;52.516;10.528;2023-06-24T04:56:56;19.38;;;10.95;;
76107;SDS011;64834;52.516;10.528;2023-06-24T04:59:22;16.63;;;10.18;;
76107;SDS011;64834;52.516;10.528;2023-06-24T05:01:47;15.75;;;9.68;;
76107;SDS011;64834;52.516;10.528;2023-06-24T05:04:13;16.67;;;10.23;;
76107;SDS011;64834;52.516;10.528;2023-06-24T05:06:38;19.65;;;11.00;;
76107;SDS011;64834;52.516;10.528;2023-06-24T05:09:03;16.58;;;9.88;;
76107;SDS011;64834;52.516;10.528;2023-06-24T05:11:29;16.23;;;10.05;;
76107;SDS011;64834;52.516;10.528;2023-06-24T05:13:54;20.83;;;10.85;;
76107;SDS011;64834;52.516;10.528;2023-06-24T05:16:19;19.70;;;11.07;;
76107;SDS011;64834;52.516;10.528;2023-06-24T05:18:45;15.60;;;10.18;;
76107;SDS011;64834;52.516;10.528;2023-06-24T05:21:10;16.08;;;9.82;;
76107;SDS011;64834;52.516;10.528;2023-06-24T05:23:36;17.55;;;9.63;;
76107;SDS011;64834;52.516;10.528;2023-06-24T05:26:01;16.13;;;9.98;;
76107;SDS011;64834;52.516;10.528;2023-06-24T05:28:26;16.40;;;9.65;;
76107;SDS011;64834;52.516;10.528;2023-06-24T05:30:52;17.80;;;11.18;;
76107;SDS011;64834;52.516;10.528;2023-06-24T05:33:17;16.48;;;10.35;;
76107;SDS011;64834;52.516;10.528;2023-06-24T05:35:43;15.32;;;10.15;;
76107;SDS011;64834;52.516;10.528;2023-06-24T05:38:08;18.85;;;10.07;;
76107;SDS011;64834;52.516;10.528;2023-06-24T05:40:34;14.88;;;10.20;;
76107;SDS011;64834;52.516;10.528;2023-06-24T05:42:59;16.85;;;9.75;;
76107;SDS011;64834;52.516;10.528;2023-06-24T05:45:25;14.25;;;9.85;;
76107;SDS011;64834;52.516;10.528;2023-06-24T05:47:51;19.40;;;11.07;;
76107;SDS011;64834;52.516;10.528;2023-06-24T05:50:16;16.02;;;9.55;;
76107;SDS011;64834;52.516;10.528;2023-06-24T05:52:42;18.65;;;9.82;;
76107;SDS011;64834;52.516;10.528;2023-06-24T05:55:07;16.52;;;8.85;;
76107;SDS011;64834;52.516;10.528;2023-06-24T05:57:32;19.73;;;9.93;;
76107;SDS011;64834;52.516;10.528;2023-06-24T05:59:58;15.18;;;9.25;;
76107;SDS011;64834;52.516;10.528;2023-06-24T06:02:23;17.23;;;11.20;;
76107;SDS011;64834;52.516;10.528;2023-06-24T06:04:49;14.23;;;9.25;;
76107;SDS011;64834;52.516;10.528;2023-06-24T06:07:15;14.60;;;8.82;;
76107;SDS011;64834;52.516;10.528;2023-06-24T06:09:40;18.27;;;10.77;;
76107;SDS011;64834;52.516;10.528;2023-06-24T06:12:05;18.42;;;9.85;;
76107;SDS011;64834;52.516;10.528;2023-06-24T06:14:32;19.27;;;9.75;;
76107;SDS011;64834;52.516;10.528;2023-06-24T06:16:57;15.80;;;9.30;;
76107;SDS011;64834;52.516;10.528;2023-06-24T06:19:22;16.00;;;9.82;;
76107;SDS011;64834;52.516;10.528;2023-06-24T06:21:48;17.27;;;10.30;;
76107;SDS011;64834;52.516;10.528;2023-06-24T06:24:14;19.33;;;10.68;;
76107;SDS011;64834;52.516;10.528;2023-06-24T06:26:42;15.75;;;10.57;;
76107;SDS011;64834;52.516;10.528;2023-06-24T06:29:08;15.50;;;10.30;;
76107;SDS011;64834;52.516;10.528;2023-06-24T06:31:34;16.80;;;9.82;;
76107;SDS011;64834;52.516;10.528;2023-06-24T06:33:59;17.85;;;9.63;;
76107;SDS011;64834;52.516;10.528;2023-06-24T06:36:25;17.35;;;9.88;;
76107;SDS011;64834;52.516;10.528;2023-06-24T06:38:50;17.73;;;10.98;;
76107;SDS011;64834;52.516;10.528;2023-06-24T06:41:16;15.93;;;10.30;;
76107;SDS011;64834;52.516;10.528;2023-06-24T06:43:42;17.27;;;10.02;;
76107;SDS011;64834;52.516;10.528;2023-06-24T06:46:07;18.58;;;10.02;;
76107;SDS011;64834;52.516;10.528;2023-06-24T06:48:33;13.45;;;9.48;;
76107;SDS011;64834;52.516;10.528;2023-06-24T06:50:58;13.73;;;9.20;;
76107;SDS011;64834;52.516;10.528;2023-06-24T06:53:23;16.15;;;9.70;;
76107;SDS011;64834;52.516;10.528;2023-06-24T06:55:49;15.50;;;9.68;;
76107;SDS011;64834;52.516;10.528;2023-06-24T06:58:14;13.32;;;9.18;;
76107;SDS011;64834;52.516;10.528;2023-06-24T07:00:39;14.23;;;8.60;;
76107;SDS011;64834;52.516;10.528;2023-06-24T07:03:05;14.02;;;8.70;;
76107;SDS011;64834;52.516;10.528;2023-06-24T07:05:30;13.55;;;7.97;;
76107;SDS011;64834;52.516;10.528;2023-06-24T07:07:55;12.98;;;7.53;;
76107;SDS011;64834;52.516;10.528;2023-06-24T07:10:21;13.85;;;8.02;;
76107;SDS011;64834;52.516;10.528;2023-06-24T07:12:46;12.35;;;7.90;;
76107;SDS011;64834;52.516;10.528;2023-06-24T07:15:11;12.68;;;8.75;;
76107;SDS011;64834;52.516;10.528;2023-06-24T07:17:37;10.93;;;7.60;;
76107;SDS011;64834;52.516;10.528;2023-06-24T07:20:02;10.73;;;6.70;;
76107;SDS011;64834;52.516;10.528;2023-06-24T07:22:27;11.40;;;7.55;;
76107;SDS011;64834;52.516;10.528;2023-06-24T07:24:55;10.98;;;6.72;;
76107;SDS011;64834;52.516;10.528;2023-06-24T07:27:21;9.68;;;6.68;;
76107;SDS011;64834;52.516;10.528;2023-06-24T07:29:46;10.35;;;6.32;;
76107;SDS011;64834;52.516;10.528;2023-06-24T07:32:11;7.07;;;5.38;;
76107;SDS011;64834;52.516;10.528;2023-06-24T07:34:37;10.13;;;6.32;;
76107;SDS011;64834;52.516;10.528;2023-06-24T07:37:02;9.27;;;6.15;;
76107;SDS011;64834;52.516;10.528;2023-06-24T07:39:28;10.02;;;6.07;;
76107;SDS011;64834;52.516;10.528;2023-06-24T07:41:53;10.38;;;6.72;;
76107;SDS011;64834;52.516;10.528;2023-06-24T07:44:18;9.73;;;5.85;;
76107;SDS011;64834;52.516;10.528;2023-06-24T07:46:44;9.00;;;6.43;;
76107;SDS011;64834;52.516;10.528;2023-06-24T07:49:09;6.82;;;5.15;;
76107;SDS011;64834;52.516;10.528;2023-06-24T07:51:35;9.00;;;5.85;;
76107;SDS011;64834;52.516;10.528;2023-06-24T07:54:00;9.95;;;5.50;;
76107;SDS011;64834;52.516;10.528;2023-06-24T07:56:26;8.02;;;5.28;;
76107;SDS011;64834;52.516;10.528;2023-06-24T07:58:51;10.48;;;5.75;;
76107;SDS011;64834;52.516;10.528;2023-06-24T08:01:16;9.38;;;5.82;;
76107;SDS011;64834;52.516;10.528;2023-06-24T08:03:42;8.00;;;5.25;;
76107;SDS011;64834;52.516;10.528;2023-06-24T08:06:07;7.05;;;5.25;;
76107;SDS011;64834;52.516;10.528;2023-06-24T08:08:32;7.30;;;5.00;;
76107;SDS011;64834;52.516;10.528;2023-06-24T08:10:58;7.43;;;4.78;;
76107;SDS011;64834;52.516;10.528;2023-06-24T08:13:23;5.90;;;4.82;;
76107;SDS011;64834;52.516;10.528;2023-06-24T08:15:48;8.25;;;5.10;;
76107;SDS011;64834;52.516;10.528;2023-06-24T08:18:14;6.28;;;4.53;;
76107;SDS011;64834;52.516;10.528;2023-06-24T08:20:39;7.68;;;5.10;;
76107;SDS011;64834;52.516;10.528;2023-06-24T08:23:04;6.80;;;5.03;;
76107;SDS011;64834;52.516;10.528;2023-06-24T08:25:29;6.40;;;4.75;;
76107;SDS011;64834;52.516;10.528;2023-06-24T08:27:55;7.13;;;5.10;;
76107;SDS011;64834;52.516;10.528;2023-06-24T08:30:21;6.88;;;4.20;;
76107;SDS011;64834;52.516;10.528;2023-06-24T08:32:46;6.45;;;4.70;;
76107;SDS011;64834;52.516;10.528;2023-06-24T08:35:11;7.53;;;4.32;;
76107;SDS011;64834;52.516;10.528;2023-06-24T08:37:37;5.72;;;3.95;;
76107;SDS011;64834;52.516;10.528;2023-06-24T08:40:03;7.28;;;4.55;;
76107;SDS011;64834;52.516;10.528;2023-06-24T08:42:32;5.95;;;4.35;;
76107;SDS011;64834;52.516;10.528;2023-06-24T08:44:57;6.45;;;4.15;;
76107;SDS011;64834;52.516;10.528;2023-06-24T08:47:23;5.72;;;3.70;;
76107;SDS011;64834;52.516;10.528;2023-06-24T08:49:52;7.05;;;4.13;;
76107;SDS011;64834;52.516;10.528;2023-06-24T08:52:21;8.40;;;4.45;;
76107;SDS011;64834;52.516;10.528;2023-06-24T08:54:51;5.00;;;3.80;;
76107;SDS011;64834;52.516;10.528;2023-06-24T08:57:20;4.57;;;3.50;;
76107;SDS011;64834;52.516;10.528;2023-06-24T08:59:45;5.53;;;3.72;;
76107;SDS011;64834;52.516;10.528;2023-06-24T09:02:10;8.40;;;3.60;;
76107;SDS011;64834;52.516;10.528;2023-06-24T09:04:36;4.82;;;3.95;;
76107;SDS011;64834;52.516;10.528;2023-06-24T09:07:01;7.57;;;4.47;;
76107;SDS011;64834;52.516;10.528;2023-06-24T09:09:28;4.78;;;3.17;;
76107;SDS011;64834;52.516;10.528;2023-06-24T09:11:57;6.80;;;3.90;;
76107;SDS011;64834;52.516;10.528;2023-06-24T09:14:24;6.25;;;3.65;;
76107;SDS011;64834;52.516;10.528;2023-06-24T09:16:58;4.68;;;3.80;;
76107;SDS011;64834;52.516;10.528;2023-06-24T09:19:28;6.90;;;4.22;;
76107;SDS011;64834;52.516;10.528;2023-06-24T09:22:07;6.38;;;4.05;;
76107;SDS011;64834;52.516;10.528;2023-06-24T09:24:34;4.35;;;3.40;;
76107;SDS011;64834;52.516;10.528;2023-06-24T09:27:00;5.60;;;3.58;;
76107;SDS011;64834;52.516;10.528;2023-06-24T09:29:27;5.82;;;3.80;;
76107;SDS011;64834;52.516;10.528;2023-06-24T09:31:54;7.15;;;3.83;;
76107;SDS011;64834;52.516;10.528;2023-06-24T09:34:21;5.85;;;3.80;;
76107;SDS011;64834;52.516;10.528;2023-06-24T09:36:53;7.75;;;3.88;;
76107;SDS011;64834;52.516;10.528;2023-06-24T09:39:20;4.15;;;3.47;;
76107;SDS011;64834;52.516;10.528;2023-06-24T09:41:54;5.30;;;3.40;;
76107;SDS011;64834;52.516;10.528;2023-06-24T09:44:20;4.35;;;3.40;;
76107;SDS011;64834;52.516;10.528;2023-06-24T09:46:45;5.55;;;2.90;;
76107;SDS011;64834;52.516;10.528;2023-06-24T09:49:11;4.00;;;3.13;;
76107;SDS011;64834;52.516;10.528;2023-06-24T09:51:37;4.50;;;3.15;;
76107;SDS011;64834;52.516;10.528;2023-06-24T09:54:07;5.07;;;3.88;;
76107;SDS011;64834;52.516;10.528;2023-06-24T09:56:37;5.13;;;3.42;;
76107;SDS011;64834;52.516;10.528;2023-06-24T09:59:13;5.88;;;2.85;;
76107;SDS011;64834;52.516;10.528;2023-06-24T10:01:40;5.18;;;3.67;;
76107;SDS011;64834;52.516;10.528;2023-06-24T10:04:08;4.40;;;3.60;;
76107;SDS011;64834;52.516;10.528;2023-06-24T10:09:01;4.57;;;3.27;;
76107;SDS011;64834;52.516;10.528;2023-06-24T10:11:26;4.30;;;3.33;;
76107;SDS011;64834;52.516;10.528;2023-06-24T10:13:52;8.27;;;3.63;;
76107;SDS011;64834;52.516;10.528;2023-06-24T10:16:18;6.13;;;3.70;;
76107;SDS011;64834;52.516;10.528;2023-06-24T10:18:44;6.70;;;4.00;;
76107;SDS011;64834;52.516;10.528;2023-06-24T10:21:10;6.07;;;3.95;;
76107;SDS011;64834;52.516;10.528;2023-06-24T10:26:26;5.88;;;4.32;;
76107;SDS011;64834;52.516;10.528;2023-06-24T10:34:28;5.18;;;3.85;;
76107;SDS011;64834;52.516;10.528;2023-06-24T10:37:02;6.20;;;4.00;;
76107;SDS011;64834;52.516;10.528;2023-06-24T10:39:34;6.38;;;3.58;;
76107;SDS011;64834;52.516;10.528;2023-06-24T10:45:17;4.90;;;3.35;;
76107;SDS011;64834;52.516;10.528;2023-06-24T10:47:50;5.18;;;3.50;;
76107;SDS011;64834;52.516;10.528;2023-06-24T10:50:21;7.18;;;3.60;;
76107;SDS011;64834;52.516;10.528;2023-06-24T10:52:49;4.75;;;3.40;;
76107;SDS011;64834;52.516;10.528;2023-06-24T10:55:18;5.10;;;3.97;;
76107;SDS011;64834;52.516;10.528;2023-06-24T10:57:44;7.53;;;4.28;;
76107;SDS011;64834;52.516;10.528;2023-06-24T11:00:11;7.22;;;4.63;;
76107;SDS011;64834;52.516;10.528;2023-06-24T11:05:03;6.30;;;4.27;;
76107;SDS011;64834;52.516;10.528;2023-06-24T11:07:30;5.53;;;4.30;;
76107;SDS011;64834;52.516;10.528;2023-06-24T11:10:01;6.22;;;4.03;;
76107;SDS011;64834;52.516;10.528;2023-06-24T11:12:30;6.43;;;3.83;;
76107;SDS011;64834;52.516;10.528;2023-06-24T11:14:57;6.57;;;4.30;;
76107;SDS011;64834;52.516;10.528;2023-06-24T11:17:24;7.22;;;3.70;;
76107;SDS011;64834;52.516;10.528;2023-06-24T11:19:51;6.45;;;3.78;;
76107;SDS011;64834;52.516;10.528;2023-06-24T11:22:18;4.88;;;3.40;;
76107;SDS011;64834;52.516;10.528;2023-06-24T11:24:43;7.38;;;3.83;;
76107;SDS011;64834;52.516;10.528;2023-06-24T11:27:09;5.28;;;3.78;;
76107;SDS011;64834;52.516;10.528;2023-06-24T11:29:34;5.07;;;3.55;;
76107;SDS011;64834;52.516;10.528;2023-06-24T11:32:00;7.35;;;4.30;;
76107;SDS011;64834;52.516;10.528;2023-06-24T11:36:52;6.10;;;3.53;;
76107;SDS011;64834;52.516;10.528;2023-06-24T11:39:24;3.72;;;3.28;;
76107;SDS011;64834;52.516;10.528;2023-06-24T11:41:52;6.78;;;3.78;;
76107;SDS011;64834;52.516;10.528;2023-06-24T11:44:19;4.75;;;3.80;;
76107;SDS011;64834;52.516;10.528;2023-06-24T11:46:45;4.10;;;3.20;;
76107;SDS011;64834;52.516;10.528;2023-06-24T11:49:10;4.20;;;3.47;;
76107;SDS011;64834;52.516;10.528;2023-06-24T11:51:37;6.00;;;3.20;;
76107;SDS011;64834;52.516;10.528;2023-06-24T11:54:13;4.90;;;3.40;;
76107;SDS011;64834;52.516;10.528;2023-06-24T11:56:40;5.10;;;3.50;;
76107;SDS011;64834;52.516;10.528;2023-06-24T11:59:07;4.60;;;3.35;;
76107;SDS011;64834;52.516;10.528;2023-06-24T12:01:42;4.53;;;3.13;;
76107;SDS011;64834;52.516;10.528;2023-06-24T12:04:11;4.47;;;3.47;;
76107;SDS011;64834;52.516;10.528;2023-06-24T12:06:38;5.03;;;3.20;;
76107;SDS011;64834;52.516;10.528;2023-06-24T12:11:30;6.90;;;3.67;;
76107;SDS011;64834;52.516;10.528;2023-06-24T12:13:55;6.75;;;3.35;;
76107;SDS011;64834;52.516;10.528;2023-06-24T12:16:21;4.57;;;3.40;;
76107;SDS011;64834;52.516;10.528;2023-06-24T12:18:48;5.80;;;3.53;;
76107;SDS011;64834;52.516;10.528;2023-06-24T12:21:13;5.07;;;3.58;;
76107;SDS011;64834;52.516;10.528;2023-06-24T12:23:38;5.10;;;3.28;;
76107;SDS011;64834;52.516;10.528;2023-06-24T12:26:04;4.40;;;3.42;;
76107;SDS011;64834;52.516;10.528;2023-06-24T12:28:29;5.43;;;3.70;;
76107;SDS011;64834;52.516;10.528;2023-06-24T12:30:54;5.30;;;3.50;;
76107;SDS011;64834;52.516;10.528;2023-06-24T12:33:20;4.53;;;3.60;;
76107;SDS011;64834;52.516;10.528;2023-06-24T12:35:47;5.28;;;4.18;;
76107;SDS011;64834;52.516;10.528;2023-06-24T12:38:13;6.60;;;3.50;;
76107;SDS011;64834;52.516;10.528;2023-06-24T12:40:38;5.65;;;3.58;;
76107;SDS011;64834;52.516;10.528;2023-06-24T12:43:04;5.00;;;3.63;;
76107;SDS011;64834;52.516;10.528;2023-06-24T12:45:29;5.25;;;3.70;;
76107;SDS011;64834;52.516;10.528;2023-06-24T12:47:55;5.93;;;3.30;;
76107;SDS011;64834;52.516;10.528;2023-06-24T12:50:20;6.75;;;3.38;;
76107;SDS011;64834;52.516;10.528;2023-06-24T12:52:45;5.45;;;3.50;;
76107;SDS011;64834;52.516;10.528;2023-06-24T12:55:11;5.03;;;3.72;;
76107;SDS011;64834;52.516;10.528;2023-06-24T12:57:36;5.28;;;3.75;;
76107;SDS011;64834;52.516;10.528;2023-06-24T13:00:02;5.32;;;3.47;;
76107;SDS011;64834;52.516;10.528;2023-06-24T13:02:30;6.75;;;3.65;;
76107;SDS011;64834;52.516;10.528;2023-06-24T13:04:55;5.75;;;3.95;;
76107;SDS011;64834;52.516;10.528;2023-06-24T13:07:20;5.70;;;3.45;;
76107;SDS011;64834;52.516;10.528;2023-06-24T13:09:46;6.68;;;3.83;;
76107;SDS011;64834;52.516;10.528;2023-06-24T13:12:11;8.15;;;3.60;;
76107;SDS011;64834;52.516;10.528;2023-06-24T13:14:36;5.55;;;3.85;;
76107;SDS011;64834;52.516;10.528;2023-06-24T13:17:02;4.95;;;3.63;;
76107;SDS011;64834;52.516;10.528;2023-06-24T13:19:27;4.93;;;4.15;;
76107;SDS011;64834;52.516;10.528;2023-06-24T13:21:52;5.72;;;3.80;;
76107;SDS011;64834;52.516;10.528;2023-06-24T13:24:18;5.60;;;3.33;;
76107;SDS011;64834;52.516;10.528;2023-06-24T13:26:43;4.68;;;3.40;;
76107;SDS011;64834;52.516;10.528;2023-06-24T13:29:09;4.75;;;3.30;;
76107;SDS011;64834;52.516;10.528;2023-06-24T13:31:35;6.18;;;3.15;;
76107;SDS011;64834;52.516;10.528;2023-06-24T13:34:00;4.43;;;3.45;;
76107;SDS011;64834;52.516;10.528;2023-06-24T13:36:32;5.40;;;3.25;;
76107;SDS011;64834;52.516;10.528;2023-06-24T13:39:00;4.90;;;3.83;;
76107;SDS011;64834;52.516;10.528;2023-06-24T13:41:27;6.05;;;3.47;;
76107;SDS011;64834;52.516;10.528;2023-06-24T13:43:54;7.50;;;3.90;;
76107;SDS011;64834;52.516;10.528;2023-06-24T13:46:20;4.72;;;3.13;;
76107;SDS011;64834;52.516;10.528;2023-06-24T13:48:46;3.38;;;2.92;;
76107;SDS011;64834;52.516;10.528;2023-06-24T13:51:11;4.13;;;2.97;;
76107;SDS011;64834;52.516;10.528;2023-06-24T13:53:36;5.45;;;3.05;;
76107;SDS011;64834;52.516;10.528;2023-06-24T13:56:02;4.22;;;2.92;;
76107;SDS011;64834;52.516;10.528;2023-06-24T13:58:27;4.93;;;3.13;;
76107;SDS011;64834;52.516;10.528;2023-06-24T14:00:52;4.97;;;2.95;;
76107;SDS011;64834;52.516;10.528;2023-06-24T14:03:18;5.32;;;3.33;;
76107;SDS011;64834;52.516;10.528;2023-06-24T14:05:43;5.55;;;3.28;;
76107;SDS011;64834;52.516;10.528;2023-06-24T14:08:08;5.03;;;3.38;;
76107;SDS011;64834;52.516;10.528;2023-06-24T14:10:33;6.57;;;3.35;;
76107;SDS011;64834;52.516;10.528;2023-06-24T14:12:59;4.25;;;2.80;;
76107;SDS011;64834;52.516;10.528;2023-06-24T14:15:24;3.90;;;2.83;;
76107;SDS011;64834;52.516;10.528;2023-06-24T14:17:49;4.70;;;3.35;;
76107;SDS011;64834;52.516;10.528;2023-06-24T14:20:15;4.03;;;3.50;;
76107;SDS011;64834;52.516;10.528;2023-06-24T14:22:40;5.45;;;3.72;;
76107;SDS011;64834;52.516;10.528;2023-06-24T14:25:05;3.70;;;2.83;;
76107;SDS011;64834;52.516;10.528;2023-06-24T14:27:31;4.13;;;2.90;;
76107;SDS011;64834;52.516;10.528;2023-06-24T14:29:56;3.97;;;3.05;;
76107;SDS011;64834;52.516;10.528;2023-06-24T14:32:21;4.18;;;3.30;;
76107;SDS011;64834;52.516;10.528;2023-06-24T14:34:47;4.35;;;3.05;;
76107;SDS011;64834;52.516;10.528;2023-06-24T14:37:12;5.18;;;3.40;;
76107;SDS011;64834;52.516;10.528;2023-06-24T14:39:39;4.45;;;3.40;;
76107;SDS011;64834;52.516;10.528;2023-06-24T14:42:05;4.50;;;3.05;;
76107;SDS011;64834;52.516;10.528;2023-06-24T14:44:30;5.03;;;3.40;;
76107;SDS011;64834;52.516;10.528;2023-06-24T14:46:56;5.05;;;3.60;;
76107;SDS011;64834;52.516;10.528;2023-06-24T14:49:21;4.68;;;2.90;;
76107;SDS011;64834;52.516;10.528;2023-06-24T14:51:47;4.88;;;3.30;;
76107;SDS011;64834;52.516;10.528;2023-06-24T14:54:12;4.00;;;2.90;;